createdAt,value
2023-02-19T00:00:59.336Z,985.16
2023-02-19T00:06:31.044Z,984.9
2023-02-19T00:12:02.888Z,984.74
2023-02-19T00:17:39.815Z,984.85
2023-02-19T00:23:06.406Z,984.78
2023-02-19T00:28:38.059Z,984.69
2023-02-19T00:34:10.020Z,984.76
2023-02-19T00:39:41.512Z,984.81
2023-02-19T00:45:13.408Z,985.19
2023-02-19T00:50:49.522Z,985.27
2023-02-19T00:56:21.245Z,985.34
2023-02-19T01:01:53.098Z,985.08
2023-02-19T01:07:24.655Z,985.59
2023-02-19T01:12:56.446Z,985.56
2023-02-19T01:18:28.417Z,985.48
2023-02-19T01:24:00.187Z,985.59
2023-02-19T01:29:31.533Z,984.94
2023-02-19T01:35:03.284Z,985.23
2023-02-19T01:40:35.151Z,984.88
2023-02-19T01:46:07.001Z,984.51
2023-02-19T01:51:44.900Z,984.68
2023-02-19T01:57:16.613Z,984.91
2023-02-19T02:02:48.443Z,984.96
2023-02-19T02:08:20.047Z,984.73
2023-02-19T02:13:51.775Z,984.63
2023-02-19T02:19:24.787Z,984.32
2023-02-19T02:24:55.477Z,984.84
2023-02-19T02:30:27.084Z,984.87
2023-02-19T02:35:58.764Z,985.12
2023-02-19T02:41:31.029Z,985.1
2023-02-19T02:47:02.397Z,985.28
2023-02-19T02:52:38.597Z,984.96
2023-02-19T02:58:10.099Z,984.89
2023-02-19T03:03:41.936Z,984.99
2023-02-19T03:09:13.926Z,985.11
2023-02-19T03:14:45.533Z,985.05
2023-02-19T03:20:17.145Z,985.3
2023-02-19T03:25:48.712Z,985.06
2023-02-19T03:31:20.753Z,985.43
2023-02-19T03:36:52.144Z,985.19
2023-02-19T03:42:24.194Z,985.15
2023-02-19T03:47:55.551Z,985.52
2023-02-19T03:53:31.728Z,985.88
2023-02-19T03:59:03.695Z,985.88
2023-02-19T04:04:35.119Z,986.03
2023-02-19T04:10:07.396Z,985.88
2023-02-19T04:15:38.589Z,986.06
2023-02-19T04:21:11.526Z,985.73
2023-02-19T04:26:42.046Z,985.51
2023-02-19T04:32:13.916Z,985.57
2023-02-19T04:38:10.791Z,985.98
2023-02-19T04:43:42.472Z,985.73
2023-02-19T04:49:14.101Z,985.63
2023-02-19T04:54:50.165Z,985.86
2023-02-19T05:00:22.068Z,986.28
2023-02-19T05:05:53.422Z,985.94
2023-02-19T05:11:25.468Z,986.02
2023-02-19T05:16:57.043Z,986.43
2023-02-19T05:22:28.780Z,986.32
2023-02-19T05:28:00.681Z,986.18
2023-02-19T05:33:32.309Z,986.12
2023-02-19T05:39:03.968Z,986.24
2023-02-19T05:44:35.842Z,986.59
2023-02-19T05:50:07.661Z,986.3
2023-02-19T05:55:43.744Z,986.45
2023-02-19T06:01:15.678Z,986.11
2023-02-19T06:06:47.052Z,986.28
2023-02-19T06:12:18.806Z,986.32
2023-02-19T06:17:50.685Z,986.36
2023-02-19T06:23:23.035Z,986.47
2023-02-19T06:28:53.946Z,986.51
2023-02-19T06:34:25.460Z,986.54
2023-02-19T06:39:57.758Z,986.98
2023-02-19T06:45:28.959Z,987.19
2023-02-19T06:51:00.747Z,987.19
2023-02-19T06:56:36.852Z,987.39
2023-02-19T07:02:09.066Z,987.32
2023-02-19T07:07:40.473Z,987.19
2023-02-19T07:13:11.918Z,987.56
2023-02-19T07:18:43.899Z,987.48
2023-02-19T07:24:15.616Z,987.83
2023-02-19T07:29:47.178Z,988.1
2023-02-19T07:35:19.085Z,987.73
2023-02-19T07:40:51.037Z,987.89
2023-02-19T07:46:22.937Z,987.82
2023-02-19T07:51:54.434Z,988.31
2023-02-19T07:57:32.256Z,988.49
2023-02-19T08:03:04.644Z,988.06
2023-02-19T08:08:35.768Z,988.14
2023-02-19T08:14:07.647Z,988.04
2023-02-19T08:19:39.178Z,988.31
2023-02-19T08:25:11.057Z,988.11
2023-02-19T08:30:43.211Z,988.16
2023-02-19T08:36:14.433Z,988.56
2023-02-19T08:41:46.428Z,988.52
2023-02-19T08:47:17.811Z,988.42
2023-02-19T08:52:49.453Z,988.68
2023-02-19T08:58:26.870Z,988.5
2023-02-19T09:03:57.576Z,988.62
2023-02-19T09:09:30.054Z,988.56
2023-02-19T09:15:00.907Z,988.57
2023-02-19T09:20:32.598Z,989.28
2023-02-19T09:26:04.413Z,989.35
2023-02-19T09:31:36.447Z,989.6
2023-02-19T09:37:07.931Z,989.71
2023-02-19T09:42:40.489Z,989.29
2023-02-19T09:48:11.924Z,989.76
2023-02-19T09:53:43.031Z,989.79
2023-02-19T09:59:19.470Z,990.29
2023-02-19T10:04:51.066Z,989.93
2023-02-19T10:10:22.826Z,989.97
2023-02-19T10:15:54.978Z,990.09
2023-02-19T10:21:26.748Z,989.94
2023-02-19T10:26:58.036Z,990.22
2023-02-19T10:32:29.987Z,990.43
2023-02-19T10:38:01.813Z,990.73
2023-02-19T10:43:33.208Z,990.41
2023-02-19T10:49:05.185Z,990.17
2023-02-19T10:54:36.935Z,989.94
2023-02-19T11:00:13.171Z,989.78
2023-02-19T11:05:44.898Z,990.5
2023-02-19T11:11:17.086Z,989.76
2023-02-19T11:16:48.140Z,989.74
2023-02-19T11:22:19.672Z,989.7
2023-02-19T11:27:51.402Z,989.25
2023-02-19T11:33:23.283Z,989.66
2023-02-19T11:38:54.910Z,989.29
2023-02-19T11:44:26.750Z,989.47
2023-02-19T11:49:58.342Z,989.91
2023-02-19T11:55:30.973Z,989.94
2023-02-19T12:01:08.516Z,989.38
2023-02-19T12:06:40.635Z,989.81
2023-02-19T12:12:12.631Z,989.64
2023-02-19T12:17:43.524Z,989.92
2023-02-19T12:23:15.496Z,989.68
2023-02-19T12:28:46.913Z,989.74
2023-02-19T12:34:18.610Z,989.95
2023-02-19T12:39:50.346Z,989.62
2023-02-19T12:45:22.456Z,989.55
2023-02-19T12:50:54.163Z,989.34
2023-02-19T12:56:25.448Z,989.07
2023-02-19T13:02:02.708Z,988.9
2023-02-19T13:07:33.587Z,988.97
2023-02-19T13:13:05.534Z,988.73
2023-02-19T13:18:36.972Z,988.61
2023-02-19T13:24:09.162Z,988.96
2023-02-19T13:29:40.573Z,988.21
2023-02-19T13:35:12.552Z,988.38
2023-02-19T13:40:43.786Z,988.45
2023-02-19T13:46:15.602Z,987.8
2023-02-19T13:51:47.408Z,987.31
2023-02-19T13:57:18.889Z,987.74
2023-02-19T14:02:55.002Z,987.96
2023-02-19T14:08:26.856Z,987.42
2023-02-19T14:13:58.712Z,987.67
2023-02-19T14:19:30.288Z,987.78
2023-02-19T14:25:02.191Z,988.05
2023-02-19T14:30:34.009Z,988.41
2023-02-19T14:36:05.401Z,988.75
2023-02-19T14:41:37.103Z,987.89
2023-02-19T14:47:08.962Z,988.2
2023-02-19T14:52:40.452Z,988.39
2023-02-19T14:58:12.520Z,988.5
2023-02-19T15:03:48.893Z,988.3
2023-02-19T15:09:20.883Z,988.42
2023-02-19T15:14:51.944Z,988.47
2023-02-19T15:20:23.715Z,988.54
2023-02-19T15:25:55.636Z,988.17
2023-02-19T15:31:27.738Z,988.67
2023-02-19T15:36:58.959Z,988.49
2023-02-19T15:42:30.600Z,988.51
2023-02-19T15:48:02.912Z,988.33
2023-02-19T15:53:34.351Z,988.5
2023-02-19T15:59:05.848Z,988.39
2023-02-19T16:04:42.126Z,988.38
2023-02-19T16:10:13.770Z,988.61
2023-02-19T16:15:45.654Z,987.84
2023-02-19T16:21:17.414Z,987.98
2023-02-19T16:26:49.020Z,987.98
2023-02-19T16:32:20.942Z,987.79
2023-02-19T16:37:52.247Z,987.62
2023-02-19T16:43:23.998Z,987.56
2023-02-19T16:48:55.738Z,987.52
2023-02-19T16:54:27.556Z,987.78
2023-02-19T16:59:59.610Z,987.99
2023-02-19T17:05:35.454Z,987.69
2023-02-19T17:11:07.387Z,988.08
2023-02-19T17:16:38.972Z,987.91
2023-02-19T17:22:10.630Z,987.99
2023-02-19T17:27:42.401Z,987.89
2023-02-19T17:33:14.089Z,988.41
2023-02-19T17:38:45.753Z,988.91
2023-02-19T17:44:17.682Z,988.53
2023-02-19T17:49:49.468Z,988.35
2023-02-19T17:55:20.982Z,988.65
2023-02-19T18:00:52.951Z,988.18
2023-02-19T18:06:31.097Z,988.2
2023-02-19T18:12:02.716Z,988.51
2023-02-19T18:17:34.523Z,988.3
2023-02-19T18:23:06.201Z,988.29
2023-02-19T18:28:37.840Z,988.56
2023-02-19T18:34:10.022Z,988.33
2023-02-19T18:39:41.457Z,988.38
2023-02-19T18:45:12.935Z,988.25
2023-02-19T18:50:44.471Z,988.37
2023-02-19T18:56:16.199Z,988.58
2023-02-19T19:01:48.209Z,988.53
2023-02-19T19:07:24.152Z,988.45
2023-02-19T19:12:56.016Z,988.44
2023-02-19T19:18:27.666Z,988.72
2023-02-19T19:23:59.562Z,988.6
2023-02-19T19:29:31.223Z,988.19
2023-02-19T19:35:03.019Z,988.25
2023-02-19T19:40:34.665Z,988.6
2023-02-19T19:46:06.611Z,988.41
2023-02-19T19:51:38.042Z,988.48
2023-02-19T19:57:10.119Z,988.64
2023-02-19T20:02:42.709Z,988.53
2023-02-19T20:08:18.210Z,988.45
2023-02-19T20:13:50.113Z,988.13
2023-02-19T20:19:21.741Z,988.08
2023-02-19T20:24:54.383Z,988.09
2023-02-19T20:30:25.171Z,988.19
2023-02-19T20:35:56.804Z,988.29
2023-02-19T20:41:28.324Z,988.35
2023-02-19T20:47:00.862Z,988.28
2023-02-19T20:52:31.985Z,988.53
2023-02-19T20:58:03.589Z,988.61
2023-02-19T21:03:35.419Z,988.98
2023-02-19T21:09:12.615Z,988.73
2023-02-19T21:14:43.457Z,988.97
2023-02-19T21:20:14.864Z,988.84
2023-02-19T21:25:46.729Z,988.77
2023-02-19T21:31:18.541Z,989.1
2023-02-19T21:36:56.940Z,989.0
2023-02-19T21:42:28.433Z,989.21
2023-02-19T21:48:00.417Z,988.88
2023-02-19T21:53:31.916Z,988.45
2023-02-19T21:59:04.664Z,987.91
2023-02-19T22:04:35.365Z,988.61
2023-02-19T22:10:13.613Z,988.32
2023-02-19T22:15:45.440Z,988.41
2023-02-19T22:21:17.189Z,988.41
2023-02-19T22:26:49.104Z,987.97
2023-02-19T22:32:21.052Z,988.86
2023-02-19T22:37:52.378Z,988.98
2023-02-19T22:43:24.160Z,988.7
2023-02-19T22:48:55.882Z,988.77
2023-02-19T22:54:27.528Z,988.87
2023-02-19T22:59:59.654Z,988.72
2023-02-19T23:05:31.360Z,988.98
2023-02-19T23:11:09.462Z,989.15
2023-02-19T23:16:41.241Z,989.1
2023-02-19T23:22:12.721Z,989.42
2023-02-19T23:27:44.532Z,989.13
2023-02-19T23:33:16.212Z,988.78
2023-02-19T23:38:48.202Z,988.94
2023-02-19T23:44:20.458Z,988.65
2023-02-19T23:49:51.452Z,988.55
2023-02-19T23:55:22.953Z,988.82
